sensor_id;sensor_type;location;lat;lon;timestamp;P1;durP1;ratioP1;P2;durP2;ratioP2
66487;SDS011;53304;54.550;18.526;2022-07-25T00:00:46;4.43;;;2.05;;
66487;SDS011;53304;54.550;18.526;2022-07-25T00:03:12;5.30;;;2.22;;
66487;SDS011;53304;54.550;18.526;2022-07-25T00:05:39;4.45;;;2.30;;
66487;SDS011;53304;54.550;18.526;2022-07-25T00:08:07;3.45;;;2.00;;
66487;SDS011;53304;54.550;18.526;2022-07-25T00:10:33;4.95;;;2.40;;
66487;SDS011;53304;54.550;18.526;2022-07-25T00:13:01;4.85;;;2.47;;
66487;SDS011;53304;54.550;18.526;2022-07-25T00:15:28;4.32;;;2.25;;
66487;SDS011;53304;54.550;18.526;2022-07-25T00:17:56;4.03;;;2.00;;
66487;SDS011;53304;54.550;18.526;2022-07-25T00:20:22;6.65;;;2.10;;
66487;SDS011;53304;54.550;18.526;2022-07-25T00:22:49;4.68;;;2.10;;
66487;SDS011;53304;54.550;18.526;2022-07-25T00:25:14;8.32;;;2.30;;
66487;SDS011;53304;54.550;18.526;2022-07-25T00:27:40;3.95;;;2.00;;
66487;SDS011;53304;54.550;18.526;2022-07-25T00:30:05;4.97;;;2.20;;
66487;SDS011;53304;54.550;18.526;2022-07-25T00:32:36;3.30;;;2.13;;
66487;SDS011;53304;54.550;18.526;2022-07-25T00:35:04;3.65;;;2.40;;
66487;SDS011;53304;54.550;18.526;2022-07-25T00:37:32;4.57;;;2.45;;
66487;SDS011;53304;54.550;18.526;2022-07-25T00:40:00;4.53;;;2.22;;
66487;SDS011;53304;54.550;18.526;2022-07-25T00:42:25;4.22;;;2.20;;
66487;SDS011;53304;54.550;18.526;2022-07-25T00:44:53;3.33;;;2.13;;
66487;SDS011;53304;54.550;18.526;2022-07-25T00:47:21;5.45;;;2.15;;
66487;SDS011;53304;54.550;18.526;2022-07-25T00:49:49;3.65;;;2.17;;
66487;SDS011;53304;54.550;18.526;2022-07-25T00:52:19;4.93;;;1.98;;
66487;SDS011;53304;54.550;18.526;2022-07-25T00:54:50;3.97;;;2.20;;
66487;SDS011;53304;54.550;18.526;2022-07-25T00:57:16;4.85;;;1.98;;
66487;SDS011;53304;54.550;18.526;2022-07-25T00:59:42;5.13;;;2.00;;
66487;SDS011;53304;54.550;18.526;2022-07-25T01:02:09;3.10;;;2.00;;
66487;SDS011;53304;54.550;18.526;2022-07-25T01:04:35;2.97;;;2.10;;
66487;SDS011;53304;54.550;18.526;2022-07-25T01:07:00;4.82;;;2.10;;
66487;SDS011;53304;54.550;18.526;2022-07-25T01:09:29;3.35;;;2.20;;
66487;SDS011;53304;54.550;18.526;2022-07-25T01:11:55;3.88;;;2.25;;
66487;SDS011;53304;54.550;18.526;2022-07-25T01:14:25;3.53;;;1.95;;
66487;SDS011;53304;54.550;18.526;2022-07-25T01:16:50;3.42;;;1.95;;
66487;SDS011;53304;54.550;18.526;2022-07-25T01:19:16;4.97;;;2.10;;
66487;SDS011;53304;54.550;18.526;2022-07-25T01:21:41;3.65;;;2.00;;
66487;SDS011;53304;54.550;18.526;2022-07-25T01:24:09;2.83;;;1.73;;
66487;SDS011;53304;54.550;18.526;2022-07-25T01:26:37;4.38;;;2.10;;
66487;SDS011;53304;54.550;18.526;2022-07-25T01:29:02;3.50;;;2.08;;
66487;SDS011;53304;54.550;18.526;2022-07-25T01:31:28;4.05;;;1.90;;
66487;SDS011;53304;54.550;18.526;2022-07-25T01:33:54;3.17;;;2.00;;
66487;SDS011;53304;54.550;18.526;2022-07-25T01:36:24;4.30;;;1.90;;
66487;SDS011;53304;54.550;18.526;2022-07-25T01:38:54;4.88;;;1.90;;
66487;SDS011;53304;54.550;18.526;2022-07-25T01:41:20;3.70;;;2.20;;
66487;SDS011;53304;54.550;18.526;2022-07-25T01:43:50;4.38;;;2.33;;
66487;SDS011;53304;54.550;18.526;2022-07-25T01:46:17;5.40;;;2.45;;
66487;SDS011;53304;54.550;18.526;2022-07-25T01:48:43;4.10;;;2.20;;
66487;SDS011;53304;54.550;18.526;2022-07-25T01:51:08;4.25;;;2.30;;
66487;SDS011;53304;54.550;18.526;2022-07-25T01:53:34;3.63;;;2.15;;
66487;SDS011;53304;54.550;18.526;2022-07-25T01:56:00;3.83;;;2.10;;
66487;SDS011;53304;54.550;18.526;2022-07-25T01:58:28;3.13;;;2.10;;
66487;SDS011;53304;54.550;18.526;2022-07-25T02:00:56;3.30;;;2.00;;
66487;SDS011;53304;54.550;18.526;2022-07-25T02:03:23;4.35;;;2.40;;
66487;SDS011;53304;54.550;18.526;2022-07-25T02:05:55;5.07;;;2.40;;
66487;SDS011;53304;54.550;18.526;2022-07-25T02:08:21;5.18;;;2.40;;
66487;SDS011;53304;54.550;18.526;2022-07-25T02:10:47;4.72;;;2.10;;
66487;SDS011;53304;54.550;18.526;2022-07-25T02:13:12;3.45;;;2.17;;
66487;SDS011;53304;54.550;18.526;2022-07-25T02:15:38;3.80;;;2.22;;
66487;SDS011;53304;54.550;18.526;2022-07-25T02:18:06;3.80;;;2.30;;
66487;SDS011;53304;54.550;18.526;2022-07-25T02:20:31;6.13;;;2.40;;
66487;SDS011;53304;54.550;18.526;2022-07-25T02:22:59;3.40;;;2.03;;
66487;SDS011;53304;54.550;18.526;2022-07-25T02:25:27;4.40;;;2.20;;
66487;SDS011;53304;54.550;18.526;2022-07-25T02:27:54;4.13;;;2.42;;
66487;SDS011;53304;54.550;18.526;2022-07-25T02:30:20;3.03;;;2.22;;
66487;SDS011;53304;54.550;18.526;2022-07-25T02:32:46;4.28;;;2.22;;
66487;SDS011;53304;54.550;18.526;2022-07-25T02:35:14;4.70;;;2.30;;
66487;SDS011;53304;54.550;18.526;2022-07-25T02:37:39;3.17;;;2.20;;
66487;SDS011;53304;54.550;18.526;2022-07-25T02:40:05;4.03;;;1.98;;
66487;SDS011;53304;54.550;18.526;2022-07-25T02:42:31;3.65;;;2.20;;
66487;SDS011;53304;54.550;18.526;2022-07-25T02:44:56;3.42;;;2.00;;
66487;SDS011;53304;54.550;18.526;2022-07-25T02:47:25;4.43;;;2.30;;
66487;SDS011;53304;54.550;18.526;2022-07-25T02:49:52;3.03;;;1.88;;
66487;SDS011;53304;54.550;18.526;2022-07-25T02:52:20;3.67;;;2.03;;
66487;SDS011;53304;54.550;18.526;2022-07-25T02:54:49;3.75;;;2.03;;
66487;SDS011;53304;54.550;18.526;2022-07-25T02:57:16;2.75;;;1.85;;
66487;SDS011;53304;54.550;18.526;2022-07-25T02:59:42;3.72;;;1.83;;
66487;SDS011;53304;54.550;18.526;2022-07-25T03:02:07;3.75;;;2.08;;
66487;SDS011;53304;54.550;18.526;2022-07-25T03:04:37;4.88;;;2.33;;
66487;SDS011;53304;54.550;18.526;2022-07-25T03:07:05;3.92;;;2.10;;
66487;SDS011;53304;54.550;18.526;2022-07-25T03:09:30;3.58;;;2.20;;
66487;SDS011;53304;54.550;18.526;2022-07-25T03:11:56;3.70;;;2.30;;
66487;SDS011;53304;54.550;18.526;2022-07-25T03:14:26;2.88;;;2.00;;
66487;SDS011;53304;54.550;18.526;2022-07-25T03:16:54;4.05;;;2.28;;
66487;SDS011;53304;54.550;18.526;2022-07-25T03:19:22;3.85;;;2.10;;
66487;SDS011;53304;54.550;18.526;2022-07-25T03:21:49;3.85;;;2.10;;
66487;SDS011;53304;54.550;18.526;2022-07-25T03:24:17;3.42;;;2.10;;
66487;SDS011;53304;54.550;18.526;2022-07-25T03:26:43;4.70;;;2.20;;
66487;SDS011;53304;54.550;18.526;2022-07-25T03:29:10;2.50;;;1.90;;
66487;SDS011;53304;54.550;18.526;2022-07-25T03:31:36;3.33;;;1.85;;
66487;SDS011;53304;54.550;18.526;2022-07-25T03:34:04;3.13;;;1.88;;
66487;SDS011;53304;54.550;18.526;2022-07-25T03:36:32;3.15;;;2.03;;
66487;SDS011;53304;54.550;18.526;2022-07-25T03:38:59;2.85;;;1.95;;
66487;SDS011;53304;54.550;18.526;2022-07-25T03:41:25;3.20;;;1.98;;
66487;SDS011;53304;54.550;18.526;2022-07-25T03:43:51;3.92;;;2.20;;
66487;SDS011;53304;54.550;18.526;2022-07-25T03:46:21;3.42;;;2.05;;
66487;SDS011;53304;54.550;18.526;2022-07-25T03:48:47;4.07;;;2.20;;
66487;SDS011;53304;54.550;18.526;2022-07-25T03:51:12;3.95;;;2.20;;
66487;SDS011;53304;54.550;18.526;2022-07-25T03:53:40;3.53;;;2.30;;
66487;SDS011;53304;54.550;18.526;2022-07-25T03:56:26;3.97;;;2.28;;
66487;SDS011;53304;54.550;18.526;2022-07-25T03:58:52;5.18;;;2.20;;
66487;SDS011;53304;54.550;18.526;2022-07-25T04:01:20;4.15;;;2.47;;
66487;SDS011;53304;54.550;18.526;2022-07-25T04:03:48;4.18;;;2.33;;
66487;SDS011;53304;54.550;18.526;2022-07-25T04:06:15;3.55;;;2.25;;
66487;SDS011;53304;54.550;18.526;2022-07-25T04:08:43;3.55;;;2.40;;
66487;SDS011;53304;54.550;18.526;2022-07-25T04:11:08;5.18;;;2.40;;
66487;SDS011;53304;54.550;18.526;2022-07-25T04:13:36;4.18;;;2.50;;
66487;SDS011;53304;54.550;18.526;2022-07-25T04:16:04;3.30;;;2.25;;
66487;SDS011;53304;54.550;18.526;2022-07-25T04:18:29;3.95;;;2.20;;
66487;SDS011;53304;54.550;18.526;2022-07-25T04:20:55;4.22;;;2.78;;
66487;SDS011;53304;54.550;18.526;2022-07-25T04:23:20;3.90;;;2.40;;
66487;SDS011;53304;54.550;18.526;2022-07-25T04:25:48;5.97;;;2.80;;
66487;SDS011;53304;54.550;18.526;2022-07-25T04:28:16;4.55;;;2.60;;
66487;SDS011;53304;54.550;18.526;2022-07-25T04:30:42;5.30;;;2.63;;
66487;SDS011;53304;54.550;18.526;2022-07-25T04:33:09;4.35;;;2.30;;
66487;SDS011;53304;54.550;18.526;2022-07-25T04:35:38;4.57;;;2.50;;
66487;SDS011;53304;54.550;18.526;2022-07-25T04:38:06;5.57;;;2.55;;
66487;SDS011;53304;54.550;18.526;2022-07-25T04:40:33;5.75;;;2.45;;
66487;SDS011;53304;54.550;18.526;2022-07-25T04:43:02;5.68;;;2.53;;
66487;SDS011;53304;54.550;18.526;2022-07-25T04:45:28;5.22;;;2.67;;
66487;SDS011;53304;54.550;18.526;2022-07-25T04:47:53;4.47;;;2.60;;
66487;SDS011;53304;54.550;18.526;2022-07-25T04:50:21;5.18;;;2.67;;
66487;SDS011;53304;54.550;18.526;2022-07-25T04:52:46;5.03;;;2.60;;
66487;SDS011;53304;54.550;18.526;2022-07-25T04:55:12;4.40;;;2.55;;
66487;SDS011;53304;54.550;18.526;2022-07-25T04:57:39;4.25;;;2.50;;
66487;SDS011;53304;54.550;18.526;2022-07-25T05:00:05;4.32;;;2.42;;
66487;SDS011;53304;54.550;18.526;2022-07-25T05:02:32;5.30;;;2.50;;
66487;SDS011;53304;54.550;18.526;2022-07-25T05:05:02;4.93;;;2.70;;
66487;SDS011;53304;54.550;18.526;2022-07-25T05:07:36;3.92;;;2.50;;
66487;SDS011;53304;54.550;18.526;2022-07-25T05:10:04;4.72;;;2.67;;
66487;SDS011;53304;54.550;18.526;2022-07-25T05:12:30;5.78;;;2.40;;
66487;SDS011;53304;54.550;18.526;2022-07-25T05:14:57;5.65;;;2.63;;
66487;SDS011;53304;54.550;18.526;2022-07-25T05:17:25;5.30;;;2.80;;
66487;SDS011;53304;54.550;18.526;2022-07-25T05:19:53;5.28;;;2.60;;
66487;SDS011;53304;54.550;18.526;2022-07-25T05:22:18;5.30;;;2.50;;
66487;SDS011;53304;54.550;18.526;2022-07-25T05:24:46;4.72;;;2.30;;
66487;SDS011;53304;54.550;18.526;2022-07-25T05:27:11;4.60;;;2.78;;
66487;SDS011;53304;54.550;18.526;2022-07-25T05:29:37;5.78;;;2.40;;
66487;SDS011;53304;54.550;18.526;2022-07-25T05:32:03;5.80;;;2.55;;
66487;SDS011;53304;54.550;18.526;2022-07-25T05:34:28;5.47;;;2.47;;
66487;SDS011;53304;54.550;18.526;2022-07-25T05:36:54;4.28;;;2.33;;
66487;SDS011;53304;54.550;18.526;2022-07-25T05:39:20;5.43;;;2.40;;
66487;SDS011;53304;54.550;18.526;2022-07-25T05:41:45;4.68;;;2.40;;
66487;SDS011;53304;54.550;18.526;2022-07-25T05:44:13;3.80;;;2.28;;
66487;SDS011;53304;54.550;18.526;2022-07-25T05:46:39;4.10;;;2.28;;
66487;SDS011;53304;54.550;18.526;2022-07-25T05:49:04;5.03;;;2.83;;
66487;SDS011;53304;54.550;18.526;2022-07-25T05:51:32;6.00;;;2.75;;
66487;SDS011;53304;54.550;18.526;2022-07-25T05:53:57;3.13;;;2.30;;
66487;SDS011;53304;54.550;18.526;2022-07-25T05:56:25;8.98;;;2.80;;
66487;SDS011;53304;54.550;18.526;2022-07-25T05:58:54;6.47;;;2.50;;
66487;SDS011;53304;54.550;18.526;2022-07-25T06:01:21;7.72;;;2.65;;
66487;SDS011;53304;54.550;18.526;2022-07-25T06:03:47;6.45;;;2.65;;
66487;SDS011;53304;54.550;18.526;2022-07-25T06:06:14;7.47;;;2.70;;
66487;SDS011;53304;54.550;18.526;2022-07-25T06:08:40;11.18;;;3.10;;
66487;SDS011;53304;54.550;18.526;2022-07-25T06:11:06;15.75;;;4.68;;
66487;SDS011;53304;54.550;18.526;2022-07-25T06:13:36;16.42;;;3.67;;
66487;SDS011;53304;54.550;18.526;2022-07-25T06:16:01;17.33;;;3.97;;
66487;SDS011;53304;54.550;18.526;2022-07-25T06:18:29;14.85;;;3.88;;
66487;SDS011;53304;54.550;18.526;2022-07-25T06:20:57;14.90;;;3.65;;
66487;SDS011;53304;54.550;18.526;2022-07-25T06:23:22;10.05;;;3.00;;
66487;SDS011;53304;54.550;18.526;2022-07-25T06:25:48;8.88;;;3.40;;
66487;SDS011;53304;54.550;18.526;2022-07-25T06:28:15;13.55;;;3.22;;
66487;SDS011;53304;54.550;18.526;2022-07-25T06:30:41;14.32;;;3.67;;
66487;SDS011;53304;54.550;18.526;2022-07-25T06:33:07;13.82;;;3.38;;
66487;SDS011;53304;54.550;18.526;2022-07-25T06:35:35;14.10;;;3.70;;
66487;SDS011;53304;54.550;18.526;2022-07-25T06:38:06;8.73;;;3.20;;
66487;SDS011;53304;54.550;18.526;2022-07-25T06:40:34;9.18;;;2.92;;
66487;SDS011;53304;54.550;18.526;2022-07-25T06:43:01;7.45;;;2.95;;
66487;SDS011;53304;54.550;18.526;2022-07-25T06:45:27;10.93;;;3.45;;
66487;SDS011;53304;54.550;18.526;2022-07-25T06:47:57;6.47;;;3.25;;
66487;SDS011;53304;54.550;18.526;2022-07-25T06:50:22;6.07;;;3.40;;
66487;SDS011;53304;54.550;18.526;2022-07-25T06:52:52;6.30;;;3.42;;
66487;SDS011;53304;54.550;18.526;2022-07-25T06:55:20;6.05;;;3.17;;
66487;SDS011;53304;54.550;18.526;2022-07-25T06:57:45;7.20;;;3.22;;
66487;SDS011;53304;54.550;18.526;2022-07-25T07:00:12;8.25;;;3.38;;
66487;SDS011;53304;54.550;18.526;2022-07-25T07:02:49;7.78;;;3.40;;
66487;SDS011;53304;54.550;18.526;2022-07-25T07:05:20;5.88;;;3.13;;
66487;SDS011;53304;54.550;18.526;2022-07-25T07:07:46;10.55;;;3.80;;
66487;SDS011;53304;54.550;18.526;2022-07-25T07:10:11;6.57;;;3.47;;
66487;SDS011;53304;54.550;18.526;2022-07-25T07:12:37;5.53;;;3.50;;
66487;SDS011;53304;54.550;18.526;2022-07-25T07:15:07;7.50;;;3.30;;
66487;SDS011;53304;54.550;18.526;2022-07-25T07:17:33;7.00;;;3.53;;
66487;SDS011;53304;54.550;18.526;2022-07-25T07:19:58;7.13;;;3.40;;
66487;SDS011;53304;54.550;18.526;2022-07-25T07:22:24;7.15;;;3.63;;
66487;SDS011;53304;54.550;18.526;2022-07-25T07:24:49;7.72;;;3.38;;
66487;SDS011;53304;54.550;18.526;2022-07-25T07:27:17;5.70;;;3.58;;
66487;SDS011;53304;54.550;18.526;2022-07-25T07:29:47;6.03;;;3.58;;
66487;SDS011;53304;54.550;18.526;2022-07-25T07:32:13;5.93;;;3.60;;
66487;SDS011;53304;54.550;18.526;2022-07-25T07:34:38;5.88;;;3.35;;
66487;SDS011;53304;54.550;18.526;2022-07-25T07:37:06;5.53;;;3.35;;
66487;SDS011;53304;54.550;18.526;2022-07-25T07:39:31;5.90;;;3.70;;
66487;SDS011;53304;54.550;18.526;2022-07-25T07:41:59;8.85;;;3.67;;
66487;SDS011;53304;54.550;18.526;2022-07-25T07:44:27;8.57;;;4.03;;
66487;SDS011;53304;54.550;18.526;2022-07-25T07:46:55;15.20;;;4.97;;
66487;SDS011;53304;54.550;18.526;2022-07-25T07:49:20;17.92;;;5.00;;
66487;SDS011;53304;54.550;18.526;2022-07-25T07:51:48;17.45;;;4.93;;
66487;SDS011;53304;54.550;18.526;2022-07-25T07:54:19;18.52;;;5.05;;
66487;SDS011;53304;54.550;18.526;2022-07-25T07:57:03;10.60;;;4.47;;
66487;SDS011;53304;54.550;18.526;2022-07-25T07:59:28;10.60;;;4.30;;
66487;SDS011;53304;54.550;18.526;2022-07-25T08:01:53;10.52;;;4.18;;
66487;SDS011;53304;54.550;18.526;2022-07-25T08:04:21;9.95;;;3.92;;
66487;SDS011;53304;54.550;18.526;2022-07-25T08:06:49;11.43;;;3.92;;
66487;SDS011;53304;54.550;18.526;2022-07-25T08:09:14;10.40;;;4.00;;
66487;SDS011;53304;54.550;18.526;2022-07-25T08:11:43;8.30;;;3.70;;
66487;SDS011;53304;54.550;18.526;2022-07-25T08:14:08;9.93;;;3.90;;
66487;SDS011;53304;54.550;18.526;2022-07-25T08:16:34;5.75;;;3.40;;
66487;SDS011;53304;54.550;18.526;2022-07-25T08:19:02;6.53;;;3.60;;
66487;SDS011;53304;54.550;18.526;2022-07-25T08:21:27;6.10;;;3.60;;
66487;SDS011;53304;54.550;18.526;2022-07-25T08:23:58;7.03;;;3.38;;
66487;SDS011;53304;54.550;18.526;2022-07-25T08:26:24;6.65;;;3.47;;
66487;SDS011;53304;54.550;18.526;2022-07-25T08:28:52;7.75;;;3.70;;
66487;SDS011;53304;54.550;18.526;2022-07-25T08:31:20;5.97;;;3.35;;
66487;SDS011;53304;54.550;18.526;2022-07-25T08:33:45;6.78;;;3.65;;
66487;SDS011;53304;54.550;18.526;2022-07-25T08:36:13;7.28;;;3.33;;
66487;SDS011;53304;54.550;18.526;2022-07-25T08:38:39;7.57;;;3.80;;
66487;SDS011;53304;54.550;18.526;2022-07-25T08:41:04;6.53;;;3.22;;
66487;SDS011;53304;54.550;18.526;2022-07-25T08:43:33;6.35;;;3.47;;
66487;SDS011;53304;54.550;18.526;2022-07-25T08:46:00;4.90;;;3.50;;
66487;SDS011;53304;54.550;18.526;2022-07-25T08:48:26;5.38;;;3.72;;
66487;SDS011;53304;54.550;18.526;2022-07-25T08:50:53;5.85;;;3.63;;
66487;SDS011;53304;54.550;18.526;2022-07-25T08:53:24;6.95;;;3.50;;
66487;SDS011;53304;54.550;18.526;2022-07-25T08:55:50;7.38;;;3.60;;
66487;SDS011;53304;54.550;18.526;2022-07-25T08:58:18;5.65;;;3.50;;
66487;SDS011;53304;54.550;18.526;2022-07-25T09:00:44;6.47;;;3.60;;
66487;SDS011;53304;54.550;18.526;2022-07-25T09:03:14;6.35;;;3.17;;
66487;SDS011;53304;54.550;18.526;2022-07-25T09:05:39;8.30;;;3.70;;
66487;SDS011;53304;54.550;18.526;2022-07-25T09:08:08;5.72;;;3.40;;
66487;SDS011;53304;54.550;18.526;2022-07-25T09:10:35;5.88;;;3.50;;
66487;SDS011;53304;54.550;18.526;2022-07-25T09:13:07;7.38;;;3.35;;
66487;SDS011;53304;54.550;18.526;2022-07-25T09:15:43;5.15;;;3.30;;
66487;SDS011;53304;54.550;18.526;2022-07-25T09:18:12;5.17;;;3.47;;
66487;SDS011;53304;54.550;18.526;2022-07-25T09:20:52;5.25;;;3.45;;
66487;SDS011;53304;54.550;18.526;2022-07-25T09:26:05;5.35;;;3.67;;
66487;SDS011;53304;54.550;18.526;2022-07-25T09:28:30;5.53;;;3.20;;
66487;SDS011;53304;54.550;18.526;2022-07-25T09:31:06;5.03;;;3.40;;
66487;SDS011;53304;54.550;18.526;2022-07-25T09:33:42;4.78;;;2.90;;
66487;SDS011;53304;54.550;18.526;2022-07-25T09:36:31;6.63;;;3.63;;
66487;SDS011;53304;54.550;18.526;2022-07-25T09:39:03;5.50;;;3.28;;
66487;SDS011;53304;54.550;18.526;2022-07-25T09:41:34;4.55;;;3.10;;
66487;SDS011;53304;54.550;18.526;2022-07-25T09:44:02;5.30;;;3.47;;
66487;SDS011;53304;54.550;18.526;2022-07-25T09:46:29;6.43;;;3.50;;
66487;SDS011;53304;54.550;18.526;2022-07-25T09:48:57;4.85;;;3.35;;
66487;SDS011;53304;54.550;18.526;2022-07-25T09:51:26;5.70;;;3.70;;
66487;SDS011;53304;54.550;18.526;2022-07-25T09:53:55;5.45;;;3.50;;
66487;SDS011;53304;54.550;18.526;2022-07-25T09:56:23;5.97;;;3.55;;
66487;SDS011;53304;54.550;18.526;2022-07-25T09:58:53;6.03;;;3.90;;
66487;SDS011;53304;54.550;18.526;2022-07-25T10:01:26;5.00;;;3.58;;
66487;SDS011;53304;54.550;18.526;2022-07-25T10:04:03;5.85;;;3.40;;
66487;SDS011;53304;54.550;18.526;2022-07-25T10:06:42;6.18;;;3.67;;
66487;SDS011;53304;54.550;18.526;2022-07-25T10:09:20;5.72;;;3.63;;
66487;SDS011;53304;54.550;18.526;2022-07-25T10:12:01;6.17;;;3.70;;
66487;SDS011;53304;54.550;18.526;2022-07-25T10:14:33;6.53;;;3.58;;
66487;SDS011;53304;54.550;18.526;2022-07-25T10:17:02;5.97;;;3.60;;
66487;SDS011;53304;54.550;18.526;2022-07-25T10:19:35;5.47;;;3.47;;
66487;SDS011;53304;54.550;18.526;2022-07-25T10:22:08;5.32;;;3.65;;
66487;SDS011;53304;54.550;18.526;2022-07-25T10:24:35;5.57;;;3.88;;
66487;SDS011;53304;54.550;18.526;2022-07-25T10:27:06;5.05;;;3.80;;
66487;SDS011;53304;54.550;18.526;2022-07-25T10:29:34;4.85;;;3.22;;
66487;SDS011;53304;54.550;18.526;2022-07-25T10:32:12;5.72;;;3.63;;
66487;SDS011;53304;54.550;18.526;2022-07-25T10:34:38;5.05;;;3.55;;
66487;SDS011;53304;54.550;18.526;2022-07-25T10:37:16;5.28;;;3.60;;
66487;SDS011;53304;54.550;18.526;2022-07-25T10:39:45;5.80;;;3.63;;
66487;SDS011;53304;54.550;18.526;2022-07-25T10:42:15;8.20;;;4.20;;
66487;SDS011;53304;54.550;18.526;2022-07-25T10:44:46;6.95;;;4.13;;
66487;SDS011;53304;54.550;18.526;2022-07-25T10:47:15;6.20;;;3.80;;
66487;SDS011;53304;54.550;18.526;2022-07-25T10:49:44;6.80;;;3.92;;
66487;SDS011;53304;54.550;18.526;2022-07-25T10:52:18;5.45;;;4.15;;
66487;SDS011;53304;54.550;18.526;2022-07-25T10:54:57;5.50;;;4.03;;
66487;SDS011;53304;54.550;18.526;2022-07-25T10:57:29;7.32;;;4.35;;
66487;SDS011;53304;54.550;18.526;2022-07-25T11:00:06;7.22;;;4.07;;
66487;SDS011;53304;54.550;18.526;2022-07-25T11:02:35;5.00;;;3.90;;
66487;SDS011;53304;54.550;18.526;2022-07-25T11:05:01;6.82;;;4.50;;
66487;SDS011;53304;54.550;18.526;2022-07-25T11:07:30;6.68;;;4.43;;
66487;SDS011;53304;54.550;18.526;2022-07-25T11:10:02;6.07;;;4.32;;
66487;SDS011;53304;54.550;18.526;2022-07-25T11:12:28;7.88;;;4.03;;
66487;SDS011;53304;54.550;18.526;2022-07-25T11:14:56;6.07;;;4.07;;
66487;SDS011;53304;54.550;18.526;2022-07-25T11:17:26;5.90;;;3.72;;
66487;SDS011;53304;54.550;18.526;2022-07-25T11:20:07;5.20;;;3.90;;
66487;SDS011;53304;54.550;18.526;2022-07-25T11:22:37;5.75;;;3.88;;
66487;SDS011;53304;54.550;18.526;2022-07-25T11:25:08;7.07;;;4.03;;
66487;SDS011;53304;54.550;18.526;2022-07-25T11:27:38;6.72;;;3.58;;
66487;SDS011;53304;54.550;18.526;2022-07-25T11:30:04;7.38;;;4.35;;
66487;SDS011;53304;54.550;18.526;2022-07-25T11:32:46;5.32;;;3.80;;
66487;SDS011;53304;54.550;18.526;2022-07-25T11:35:16;7.93;;;4.13;;
66487;SDS011;53304;54.550;18.526;2022-07-25T11:37:45;8.18;;;4.00;;
66487;SDS011;53304;54.550;18.526;2022-07-25T11:40:14;6.95;;;4.10;;
66487;SDS011;53304;54.550;18.526;2022-07-25T11:42:43;6.07;;;3.63;;
66487;SDS011;53304;54.550;18.526;2022-07-25T11:45:25;6.18;;;3.85;;
66487;SDS011;53304;54.550;18.526;2022-07-25T11:48:08;4.82;;;3.38;;
66487;SDS011;53304;54.550;18.526;2022-07-25T11:50:38;5.10;;;3.78;;
66487;SDS011;53304;54.550;18.526;2022-07-25T11:53:09;5.43;;;3.72;;
66487;SDS011;53304;54.550;18.526;2022-07-25T11:55:38;5.80;;;3.67;;
66487;SDS011;53304;54.550;18.526;2022-07-25T11:58:05;6.43;;;3.75;;
66487;SDS011;53304;54.550;18.526;2022-07-25T12:00:38;5.65;;;3.67;;
66487;SDS011;53304;54.550;18.526;2022-07-25T12:03:11;6.65;;;3.90;;
66487;SDS011;53304;54.550;18.526;2022-07-25T12:05:41;6.68;;;3.90;;
66487;SDS011;53304;54.550;18.526;2022-07-25T12:08:08;4.78;;;3.67;;
66487;SDS011;53304;54.550;18.526;2022-07-25T12:10:37;7.25;;;3.78;;
66487;SDS011;53304;54.550;18.526;2022-07-25T12:13:04;5.57;;;3.42;;
66487;SDS011;53304;54.550;18.526;2022-07-25T12:15:39;5.20;;;3.50;;
66487;SDS011;53304;54.550;18.526;2022-07-25T12:18:08;4.75;;;3.33;;
66487;SDS011;53304;54.550;18.526;2022-07-25T12:20:37;5.40;;;3.80;;
66487;SDS011;53304;54.550;18.526;2022-07-25T12:23:07;5.18;;;3.70;;
66487;SDS011;53304;54.550;18.526;2022-07-25T12:25:36;5.80;;;3.63;;
66487;SDS011;53304;54.550;18.526;2022-07-25T12:28:03;5.47;;;3.75;;
66487;SDS011;53304;54.550;18.526;2022-07-25T12:30:29;6.03;;;3.67;;
66487;SDS011;53304;54.550;18.526;2022-07-25T12:32:58;6.20;;;3.75;;
66487;SDS011;53304;54.550;18.526;2022-07-25T12:35:24;5.63;;;3.88;;
66487;SDS011;53304;54.550;18.526;2022-07-25T12:37:49;4.80;;;3.50;;
66487;SDS011;53304;54.550;18.526;2022-07-25T12:40:15;5.55;;;3.83;;
66487;SDS011;53304;54.550;18.526;2022-07-25T12:42:46;5.93;;;3.75;;
66487;SDS011;53304;54.550;18.526;2022-07-25T12:45:12;6.25;;;3.90;;
66487;SDS011;53304;54.550;18.526;2022-07-25T12:47:39;6.47;;;3.78;;
66487;SDS011;53304;54.550;18.526;2022-07-25T12:50:06;5.00;;;3.65;;
66487;SDS011;53304;54.550;18.526;2022-07-25T12:52:32;6.15;;;3.88;;
66487;SDS011;53304;54.550;18.526;2022-07-25T12:55:00;6.68;;;3.60;;
66487;SDS011;53304;54.550;18.526;2022-07-25T12:57:26;5.97;;;3.65;;
66487;SDS011;53304;54.550;18.526;2022-07-25T12:59:54;5.15;;;3.80;;
66487;SDS011;53304;54.550;18.526;2022-07-25T13:02:22;5.43;;;3.60;;
66487;SDS011;53304;54.550;18.526;2022-07-25T13:04:47;7.25;;;3.72;;
66487;SDS011;53304;54.550;18.526;2022-07-25T13:07:13;4.53;;;3.38;;
66487;SDS011;53304;54.550;18.526;2022-07-25T13:09:43;4.85;;;3.35;;
66487;SDS011;53304;54.550;18.526;2022-07-25T13:12:11;6.68;;;3.78;;
66487;SDS011;53304;54.550;18.526;2022-07-25T13:14:37;8.65;;;3.65;;
66487;SDS011;53304;54.550;18.526;2022-07-25T13:17:02;5.50;;;3.72;;
66487;SDS011;53304;54.550;18.526;2022-07-25T13:19:27;5.55;;;3.40;;
66487;SDS011;53304;54.550;18.526;2022-07-25T13:21:55;7.03;;;3.40;;
66487;SDS011;53304;54.550;18.526;2022-07-25T13:24:23;5.50;;;3.58;;
66487;SDS011;53304;54.550;18.526;2022-07-25T13:26:48;6.43;;;3.40;;
66487;SDS011;53304;54.550;18.526;2022-07-25T13:29:14;5.30;;;3.83;;
66487;SDS011;53304;54.550;18.526;2022-07-25T13:31:39;5.75;;;3.60;;
66487;SDS011;53304;54.550;18.526;2022-07-25T13:34:05;5.22;;;3.67;;
66487;SDS011;53304;54.550;18.526;2022-07-25T13:36:32;7.60;;;3.65;;
66487;SDS011;53304;54.550;18.526;2022-07-25T13:38:58;5.53;;;3.72;;
66487;SDS011;53304;54.550;18.526;2022-07-25T13:41:26;6.35;;;3.80;;
66487;SDS011;53304;54.550;18.526;2022-07-25T13:43:54;8.75;;;4.03;;
66487;SDS011;53304;54.550;18.526;2022-07-25T13:46:20;8.82;;;4.05;;
66487;SDS011;53304;54.550;18.526;2022-07-25T13:48:45;7.63;;;4.10;;
66487;SDS011;53304;54.550;18.526;2022-07-25T13:51:16;7.70;;;4.13;;
66487;SDS011;53304;54.550;18.526;2022-07-25T13:53:41;6.13;;;3.75;;
66487;SDS011;53304;54.550;18.526;2022-07-25T13:56:11;6.07;;;3.85;;
66487;SDS011;53304;54.550;18.526;2022-07-25T13:58:37;5.47;;;3.85;;
66487;SDS011;53304;54.550;18.526;2022-07-25T14:01:03;6.43;;;3.92;;
66487;SDS011;53304;54.550;18.526;2022-07-25T14:03:34;5.90;;;3.90;;
66487;SDS011;53304;54.550;18.526;2022-07-25T14:06:01;7.18;;;3.97;;
66487;SDS011;53304;54.550;18.526;2022-07-25T14:08:29;5.75;;;3.83;;
66487;SDS011;53304;54.550;18.526;2022-07-25T14:10:55;6.68;;;4.03;;
66487;SDS011;53304;54.550;18.526;2022-07-25T14:13:20;6.00;;;3.63;;
66487;SDS011;53304;54.550;18.526;2022-07-25T14:15:45;5.40;;;3.58;;
66487;SDS011;53304;54.550;18.526;2022-07-25T14:18:11;6.05;;;3.80;;
66487;SDS011;53304;54.550;18.526;2022-07-25T14:20:37;6.07;;;3.88;;
66487;SDS011;53304;54.550;18.526;2022-07-25T14:23:02;6.85;;;3.55;;
66487;SDS011;53304;54.550;18.526;2022-07-25T14:25:28;6.43;;;3.88;;
66487;SDS011;53304;54.550;18.526;2022-07-25T14:27:53;5.80;;;4.00;;
66487;SDS011;53304;54.550;18.526;2022-07-25T14:30:18;9.10;;;3.72;;
66487;SDS011;53304;54.550;18.526;2022-07-25T14:32:48;5.72;;;3.65;;
66487;SDS011;53304;54.550;18.526;2022-07-25T14:35:14;5.38;;;3.70;;
66487;SDS011;53304;54.550;18.526;2022-07-25T14:37:42;6.53;;;3.65;;
66487;SDS011;53304;54.550;18.526;2022-07-25T14:40:11;5.93;;;3.70;;